sensor_id;sensor_type;location;lat;lon;timestamp;temperature;humidity
2130;DHT22;1071;52.544;13.374;2023-04-24T00:01:35;15.00;99.90
2130;DHT22;1071;52.544;13.374;2023-04-24T00:04:04;15.00;99.90
2130;DHT22;1071;52.544;13.374;2023-04-24T00:06:32;15.00;99.90
2130;DHT22;1071;52.544;13.374;2023-04-24T00:09:00;15.00;99.90
2130;DHT22;1071;52.544;13.374;2023-04-24T00:11:28;15.00;99.90
2130;DHT22;1071;52.544;13.374;2023-04-24T00:13:55;15.00;99.90
2130;DHT22;1071;52.544;13.374;2023-04-24T00:16:23;15.00;99.90
2130;DHT22;1071;52.544;13.374;2023-04-24T00:18:52;14.90;99.90
2130;DHT22;1071;52.544;13.374;2023-04-24T00:21:19;14.90;99.90
2130;DHT22;1071;52.544;13.374;2023-04-24T00:23:47;14.90;99.90
2130;DHT22;1071;52.544;13.374;2023-04-24T00:26:14;14.90;99.90
2130;DHT22;1071;52.544;13.374;2023-04-24T00:28:41;14.90;99.90
2130;DHT22;1071;52.544;13.374;2023-04-24T00:31:08;14.90;99.90
2130;DHT22;1071;52.544;13.374;2023-04-24T00:33:36;14.90;99.90
2130;DHT22;1071;52.544;13.374;2023-04-24T00:36:04;14.90;99.90
2130;DHT22;1071;52.544;13.374;2023-04-24T00:38:38;14.90;99.90
2130;DHT22;1071;52.544;13.374;2023-04-24T00:41:09;14.90;99.90
2130;DHT22;1071;52.544;13.374;2023-04-24T00:43:37;14.80;99.90
2130;DHT22;1071;52.544;13.374;2023-04-24T00:46:04;14.80;99.90
2130;DHT22;1071;52.544;13.374;2023-04-24T00:48:39;14.80;99.90
2130;DHT22;1071;52.544;13.374;2023-04-24T00:51:07;14.80;99.90
2130;DHT22;1071;52.544;13.374;2023-04-24T00:53:34;14.70;99.90
2130;DHT22;1071;52.544;13.374;2023-04-24T00:56:02;14.80;99.90
2130;DHT22;1071;52.544;13.374;2023-04-24T00:58:31;14.80;99.90
2130;DHT22;1071;52.544;13.374;2023-04-24T01:00:59;14.70;99.90
2130;DHT22;1071;52.544;13.374;2023-04-24T01:03:30;14.70;99.90
2130;DHT22;1071;52.544;13.374;2023-04-24T01:05:58;14.70;99.90
2130;DHT22;1071;52.544;13.374;2023-04-24T01:08:28;14.80;99.90
2130;DHT22;1071;52.544;13.374;2023-04-24T01:10:57;14.70;99.90
2130;DHT22;1071;52.544;13.374;2023-04-24T01:13:24;14.70;99.90
2130;DHT22;1071;52.544;13.374;2023-04-24T01:15:51;14.70;99.90
2130;DHT22;1071;52.544;13.374;2023-04-24T01:18:18;14.70;99.90
2130;DHT22;1071;52.544;13.374;2023-04-24T01:20:49;14.70;99.90
2130;DHT22;1071;52.544;13.374;2023-04-24T01:23:19;14.60;99.90
2130;DHT22;1071;52.544;13.374;2023-04-24T01:25:46;14.60;99.90
2130;DHT22;1071;52.544;13.374;2023-04-24T01:28:18;14.60;99.90
2130;DHT22;1071;52.544;13.374;2023-04-24T01:30:45;14.60;99.90
2130;DHT22;1071;52.544;13.374;2023-04-24T01:33:12;14.60;99.90
2130;DHT22;1071;52.544;13.374;2023-04-24T01:35:40;14.50;99.90
2130;DHT22;1071;52.544;13.374;2023-04-24T01:38:07;14.60;99.90
2130;DHT22;1071;52.544;13.374;2023-04-24T01:40:35;14.60;99.90
2130;DHT22;1071;52.544;13.374;2023-04-24T01:43:02;14.60;99.90
2130;DHT22;1071;52.544;13.374;2023-04-24T01:45:29;14.60;99.90
2130;DHT22;1071;52.544;13.374;2023-04-24T01:47:57;14.60;99.90
2130;DHT22;1071;52.544;13.374;2023-04-24T01:50:24;14.60;99.90
2130;DHT22;1071;52.544;13.374;2023-04-24T01:52:51;14.60;99.90
2130;DHT22;1071;52.544;13.374;2023-04-24T01:55:18;14.60;99.90
2130;DHT22;1071;52.544;13.374;2023-04-24T01:57:47;14.60;99.90
2130;DHT22;1071;52.544;13.374;2023-04-24T02:00:14;14.60;99.90
2130;DHT22;1071;52.544;13.374;2023-04-24T02:02:47;14.60;99.90
2130;DHT22;1071;52.544;13.374;2023-04-24T02:05:21;14.60;99.90
2130;DHT22;1071;52.544;13.374;2023-04-24T02:07:48;14.60;99.90
2130;DHT22;1071;52.544;13.374;2023-04-24T02:10:15;14.60;99.90
2130;DHT22;1071;52.544;13.374;2023-04-24T02:12:42;14.60;99.90
2130;DHT22;1071;52.544;13.374;2023-04-24T02:15:11;14.60;99.90
2130;DHT22;1071;52.544;13.374;2023-04-24T02:17:38;14.60;99.90
2130;DHT22;1071;52.544;13.374;2023-04-24T02:20:07;14.60;99.90
2130;DHT22;1071;52.544;13.374;2023-04-24T02:22:34;14.60;99.90
2130;DHT22;1071;52.544;13.374;2023-04-24T02:25:01;14.60;99.90
2130;DHT22;1071;52.544;13.374;2023-04-24T02:27:29;14.60;99.90
2130;DHT22;1071;52.544;13.374;2023-04-24T02:29:56;14.60;99.90
2130;DHT22;1071;52.544;13.374;2023-04-24T02:32:24;14.60;99.90
2130;DHT22;1071;52.544;13.374;2023-04-24T02:34:51;14.60;99.90
2130;DHT22;1071;52.544;13.374;2023-04-24T02:37:18;14.60;99.90
2130;DHT22;1071;52.544;13.374;2023-04-24T02:39:45;14.60;99.90
2130;DHT22;1071;52.544;13.374;2023-04-24T02:42:12;14.70;99.90
2130;DHT22;1071;52.544;13.374;2023-04-24T02:44:39;14.70;99.90
2130;DHT22;1071;52.544;13.374;2023-04-24T02:47:08;14.70;99.90
2130;DHT22;1071;52.544;13.374;2023-04-24T02:49:37;14.70;99.90
2130;DHT22;1071;52.544;13.374;2023-04-24T02:52:04;14.70;99.90
2130;DHT22;1071;52.544;13.374;2023-04-24T02:54:31;14.70;99.90
2130;DHT22;1071;52.544;13.374;2023-04-24T02:57:00;14.70;99.90
2130;DHT22;1071;52.544;13.374;2023-04-24T02:59:27;14.70;99.90
2130;DHT22;1071;52.544;13.374;2023-04-24T03:01:54;14.60;99.90
2130;DHT22;1071;52.544;13.374;2023-04-24T03:04:23;14.70;99.90
2130;DHT22;1071;52.544;13.374;2023-04-24T03:06:54;14.70;99.90
2130;DHT22;1071;52.544;13.374;2023-04-24T03:09:21;14.70;99.90
2130;DHT22;1071;52.544;13.374;2023-04-24T03:11:48;14.70;99.90
2130;DHT22;1071;52.544;13.374;2023-04-24T03:14:16;14.70;99.90
2130;DHT22;1071;52.544;13.374;2023-04-24T03:16:43;14.60;99.90
2130;DHT22;1071;52.544;13.374;2023-04-24T03:19:10;14.70;99.90
2130;DHT22;1071;52.544;13.374;2023-04-24T03:21:38;14.70;99.90
2130;DHT22;1071;52.544;13.374;2023-04-24T03:24:07;14.70;99.90
2130;DHT22;1071;52.544;13.374;2023-04-24T03:26:35;14.70;99.90
2130;DHT22;1071;52.544;13.374;2023-04-24T03:29:02;14.70;99.90
2130;DHT22;1071;52.544;13.374;2023-04-24T03:31:29;14.70;99.90
2130;DHT22;1071;52.544;13.374;2023-04-24T03:33:56;14.70;99.90
2130;DHT22;1071;52.544;13.374;2023-04-24T03:36:23;14.70;99.90
2130;DHT22;1071;52.544;13.374;2023-04-24T03:38:51;14.70;99.90
2130;DHT22;1071;52.544;13.374;2023-04-24T03:41:19;14.70;99.90
2130;DHT22;1071;52.544;13.374;2023-04-24T03:43:48;14.70;99.90
2130;DHT22;1071;52.544;13.374;2023-04-24T03:46:15;14.70;99.90
2130;DHT22;1071;52.544;13.374;2023-04-24T03:48:42;14.70;99.90
2130;DHT22;1071;52.544;13.374;2023-04-24T03:51:09;14.70;99.90
2130;DHT22;1071;52.544;13.374;2023-04-24T03:53:36;14.70;99.90
2130;DHT22;1071;52.544;13.374;2023-04-24T03:56:03;14.70;99.90
2130;DHT22;1071;52.544;13.374;2023-04-24T03:58:31;14.70;99.90
2130;DHT22;1071;52.544;13.374;2023-04-24T04:00:58;14.70;99.90
2130;DHT22;1071;52.544;13.374;2023-04-24T04:03:26;14.70;99.90
2130;DHT22;1071;52.544;13.374;2023-04-24T04:05:53;14.70;99.90
2130;DHT22;1071;52.544;13.374;2023-04-24T04:08:20;14.70;99.90
2130;DHT22;1071;52.544;13.374;2023-04-24T04:10:47;14.70;99.90
2130;DHT22;1071;52.544;13.374;2023-04-24T04:13:14;14.80;99.90
2130;DHT22;1071;52.544;13.374;2023-04-24T04:15:42;14.80;99.90
2130;DHT22;1071;52.544;13.374;2023-04-24T04:18:09;14.80;99.90
2130;DHT22;1071;52.544;13.374;2023-04-24T04:20:37;14.80;99.90
2130;DHT22;1071;52.544;13.374;2023-04-24T04:23:06;14.80;99.90
2130;DHT22;1071;52.544;13.374;2023-04-24T04:25:33;14.80;99.90
2130;DHT22;1071;52.544;13.374;2023-04-24T04:28:00;14.80;99.90
2130;DHT22;1071;52.544;13.374;2023-04-24T04:30:27;14.80;99.90
2130;DHT22;1071;52.544;13.374;2023-04-24T04:32:59;14.80;99.90
2130;DHT22;1071;52.544;13.374;2023-04-24T04:35:26;14.80;99.90
2130;DHT22;1071;52.544;13.374;2023-04-24T04:37:56;14.80;99.90
2130;DHT22;1071;52.544;13.374;2023-04-24T04:40:24;14.80;99.90
2130;DHT22;1071;52.544;13.374;2023-04-24T04:42:52;14.90;99.90
2130;DHT22;1071;52.544;13.374;2023-04-24T04:45:19;14.90;99.90
2130;DHT22;1071;52.544;13.374;2023-04-24T04:47:47;14.90;99.90
2130;DHT22;1071;52.544;13.374;2023-04-24T04:50:16;14.80;99.90
2130;DHT22;1071;52.544;13.374;2023-04-24T04:52:44;14.80;99.90
2130;DHT22;1071;52.544;13.374;2023-04-24T04:55:11;14.70;99.90
2130;DHT22;1071;52.544;13.374;2023-04-24T04:57:40;14.80;99.90
2130;DHT22;1071;52.544;13.374;2023-04-24T05:00:10;14.80;99.90
2130;DHT22;1071;52.544;13.374;2023-04-24T05:02:45;14.80;99.90
2130;DHT22;1071;52.544;13.374;2023-04-24T05:05:13;14.80;99.90
2130;DHT22;1071;52.544;13.374;2023-04-24T05:07:41;14.90;99.90
2130;DHT22;1071;52.544;13.374;2023-04-24T05:10:09;14.80;99.90
2130;DHT22;1071;52.544;13.374;2023-04-24T05:12:36;14.90;99.90
2130;DHT22;1071;52.544;13.374;2023-04-24T05:15:04;14.90;99.90
2130;DHT22;1071;52.544;13.374;2023-04-24T05:17:31;14.90;99.90
2130;DHT22;1071;52.544;13.374;2023-04-24T05:19:58;15.00;99.90
2130;DHT22;1071;52.544;13.374;2023-04-24T05:22:26;15.00;99.90
2130;DHT22;1071;52.544;13.374;2023-04-24T05:24:54;15.00;99.90
2130;DHT22;1071;52.544;13.374;2023-04-24T05:27:21;15.10;99.90
2130;DHT22;1071;52.544;13.374;2023-04-24T05:29:48;15.10;99.90
2130;DHT22;1071;52.544;13.374;2023-04-24T05:32:15;15.10;99.90
2130;DHT22;1071;52.544;13.374;2023-04-24T05:34:42;15.10;99.90
2130;DHT22;1071;52.544;13.374;2023-04-24T05:37:11;15.10;99.90
2130;DHT22;1071;52.544;13.374;2023-04-24T05:39:42;15.10;99.90
2130;DHT22;1071;52.544;13.374;2023-04-24T05:42:10;15.10;99.90
2130;DHT22;1071;52.544;13.374;2023-04-24T05:44:37;15.10;99.90
2130;DHT22;1071;52.544;13.374;2023-04-24T05:47:04;15.10;99.90
2130;DHT22;1071;52.544;13.374;2023-04-24T05:49:31;15.10;99.90
2130;DHT22;1071;52.544;13.374;2023-04-24T05:51:58;15.10;99.90
2130;DHT22;1071;52.544;13.374;2023-04-24T05:54:25;15.10;99.90
2130;DHT22;1071;52.544;13.374;2023-04-24T05:56:52;15.20;99.90
2130;DHT22;1071;52.544;13.374;2023-04-24T05:59:21;15.20;99.90
2130;DHT22;1071;52.544;13.374;2023-04-24T06:01:48;15.10;99.90
2130;DHT22;1071;52.544;13.374;2023-04-24T06:04:15;15.10;99.90
2130;DHT22;1071;52.544;13.374;2023-04-24T06:06:42;15.20;99.90
2130;DHT22;1071;52.544;13.374;2023-04-24T06:09:09;15.20;99.90
2130;DHT22;1071;52.544;13.374;2023-04-24T06:11:37;15.20;99.90
2130;DHT22;1071;52.544;13.374;2023-04-24T06:14:04;15.20;99.90
2130;DHT22;1071;52.544;13.374;2023-04-24T06:16:33;15.20;99.90
2130;DHT22;1071;52.544;13.374;2023-04-24T06:19:00;15.30;99.90
2130;DHT22;1071;52.544;13.374;2023-04-24T06:21:27;15.40;99.90
2130;DHT22;1071;52.544;13.374;2023-04-24T06:23:54;15.40;99.90
2130;DHT22;1071;52.544;13.374;2023-04-24T06:26:21;15.30;99.90
2130;DHT22;1071;52.544;13.374;2023-04-24T06:28:50;15.30;99.90
2130;DHT22;1071;52.544;13.374;2023-04-24T06:31:17;15.30;99.90
2130;DHT22;1071;52.544;13.374;2023-04-24T06:33:46;15.40;99.90
2130;DHT22;1071;52.544;13.374;2023-04-24T06:36:13;15.40;99.90
2130;DHT22;1071;52.544;13.374;2023-04-24T06:38:39;15.40;99.90
2130;DHT22;1071;52.544;13.374;2023-04-24T06:41:07;15.50;99.90
2130;DHT22;1071;52.544;13.374;2023-04-24T06:43:34;15.60;99.90
2130;DHT22;1071;52.544;13.374;2023-04-24T06:46:00;15.70;99.90
2130;DHT22;1071;52.544;13.374;2023-04-24T06:48:29;15.80;99.90
2130;DHT22;1071;52.544;13.374;2023-04-24T06:50:57;15.90;99.90
2130;DHT22;1071;52.544;13.374;2023-04-24T06:53:24;16.00;99.90
2130;DHT22;1071;52.544;13.374;2023-04-24T06:55:51;16.10;99.90
2130;DHT22;1071;52.544;13.374;2023-04-24T06:58:18;16.20;99.90
2130;DHT22;1071;52.544;13.374;2023-04-24T07:00:45;16.20;99.90
2130;DHT22;1071;52.544;13.374;2023-04-24T07:03:12;16.30;99.90
2130;DHT22;1071;52.544;13.374;2023-04-24T07:05:45;16.40;99.90
2130;DHT22;1071;52.544;13.374;2023-04-24T07:08:14;16.40;99.90
2130;DHT22;1071;52.544;13.374;2023-04-24T07:10:42;16.60;99.90
2130;DHT22;1071;52.544;13.374;2023-04-24T07:13:09;16.70;99.90
2130;DHT22;1071;52.544;13.374;2023-04-24T07:15:39;16.70;99.90
2130;DHT22;1071;52.544;13.374;2023-04-24T07:18:06;16.70;99.90
2130;DHT22;1071;52.544;13.374;2023-04-24T07:20:34;16.90;99.90
2130;DHT22;1071;52.544;13.374;2023-04-24T07:23:04;16.90;99.90
2130;DHT22;1071;52.544;13.374;2023-04-24T07:25:32;17.00;99.90
2130;DHT22;1071;52.544;13.374;2023-04-24T07:27:59;17.10;99.90
2130;DHT22;1071;52.544;13.374;2023-04-24T07:30:27;17.10;99.90
2130;DHT22;1071;52.544;13.374;2023-04-24T07:32:54;17.20;99.90
2130;DHT22;1071;52.544;13.374;2023-04-24T07:35:22;17.30;99.90
2130;DHT22;1071;52.544;13.374;2023-04-24T07:37:50;17.40;99.90
2130;DHT22;1071;52.544;13.374;2023-04-24T07:40:20;17.50;99.90
2130;DHT22;1071;52.544;13.374;2023-04-24T07:42:49;17.50;99.90
2130;DHT22;1071;52.544;13.374;2023-04-24T07:45:16;17.60;99.90
2130;DHT22;1071;52.544;13.374;2023-04-24T07:47:43;17.60;99.90
2130;DHT22;1071;52.544;13.374;2023-04-24T07:50:11;17.70;99.90
2130;DHT22;1071;52.544;13.374;2023-04-24T07:52:39;17.80;99.90
2130;DHT22;1071;52.544;13.374;2023-04-24T07:55:06;17.80;99.90
2130;DHT22;1071;52.544;13.374;2023-04-24T07:57:33;17.70;99.90
2130;DHT22;1071;52.544;13.374;2023-04-24T08:00:03;17.70;99.90
2130;DHT22;1071;52.544;13.374;2023-04-24T08:02:31;17.80;99.90
2130;DHT22;1071;52.544;13.374;2023-04-24T08:05:00;17.80;99.90
2130;DHT22;1071;52.544;13.374;2023-04-24T08:07:28;17.90;99.90
2130;DHT22;1071;52.544;13.374;2023-04-24T08:09:56;17.90;99.90
2130;DHT22;1071;52.544;13.374;2023-04-24T08:12:23;18.00;99.90
2130;DHT22;1071;52.544;13.374;2023-04-24T08:14:50;18.00;99.90
2130;DHT22;1071;52.544;13.374;2023-04-24T08:17:18;18.00;99.90
2130;DHT22;1071;52.544;13.374;2023-04-24T08:19:45;18.10;99.90
2130;DHT22;1071;52.544;13.374;2023-04-24T08:22:14;18.20;99.90
2130;DHT22;1071;52.544;13.374;2023-04-24T08:24:41;18.20;99.90
2130;DHT22;1071;52.544;13.374;2023-04-24T08:27:09;18.20;99.90
2130;DHT22;1071;52.544;13.374;2023-04-24T08:29:37;18.20;99.90
2130;DHT22;1071;52.544;13.374;2023-04-24T08:32:04;18.10;99.90
2130;DHT22;1071;52.544;13.374;2023-04-24T08:34:34;18.20;99.90
2130;DHT22;1071;52.544;13.374;2023-04-24T08:37:01;18.30;99.90
2130;DHT22;1071;52.544;13.374;2023-04-24T08:39:28;18.30;99.90
2130;DHT22;1071;52.544;13.374;2023-04-24T08:41:55;18.30;99.90
2130;DHT22;1071;52.544;13.374;2023-04-24T08:44:22;18.40;99.90
2130;DHT22;1071;52.544;13.374;2023-04-24T08:46:50;18.50;99.90
2130;DHT22;1071;52.544;13.374;2023-04-24T08:49:17;18.40;99.90
2130;DHT22;1071;52.544;13.374;2023-04-24T08:51:46;18.40;99.90
2130;DHT22;1071;52.544;13.374;2023-04-24T08:54:15;18.40;99.90
2130;DHT22;1071;52.544;13.374;2023-04-24T08:56:44;18.40;99.90
2130;DHT22;1071;52.544;13.374;2023-04-24T08:59:12;18.50;99.90
2130;DHT22;1071;52.544;13.374;2023-04-24T09:01:40;18.50;99.90
2130;DHT22;1071;52.544;13.374;2023-04-24T09:04:09;18.60;99.90
2130;DHT22;1071;52.544;13.374;2023-04-24T09:06:40;18.60;99.90
2130;DHT22;1071;52.544;13.374;2023-04-24T09:09:10;18.70;99.90
2130;DHT22;1071;52.544;13.374;2023-04-24T09:11:38;18.70;99.90
2130;DHT22;1071;52.544;13.374;2023-04-24T09:14:05;18.70;99.90
2130;DHT22;1071;52.544;13.374;2023-04-24T09:16:33;18.80;99.90
2130;DHT22;1071;52.544;13.374;2023-04-24T09:19:01;18.80;99.90
2130;DHT22;1071;52.544;13.374;2023-04-24T09:21:31;18.80;99.90
2130;DHT22;1071;52.544;13.374;2023-04-24T09:24:04;18.80;99.90
2130;DHT22;1071;52.544;13.374;2023-04-24T09:26:35;18.80;99.90
2130;DHT22;1071;52.544;13.374;2023-04-24T09:29:04;18.80;99.90
2130;DHT22;1071;52.544;13.374;2023-04-24T09:31:33;18.80;99.90
2130;DHT22;1071;52.544;13.374;2023-04-24T09:34:02;18.80;99.90
2130;DHT22;1071;52.544;13.374;2023-04-24T09:36:32;18.80;99.90
2130;DHT22;1071;52.544;13.374;2023-04-24T09:39:00;18.80;99.90
2130;DHT22;1071;52.544;13.374;2023-04-24T09:41:29;18.90;99.90
2130;DHT22;1071;52.544;13.374;2023-04-24T09:44:10;18.90;99.90
2130;DHT22;1071;52.544;13.374;2023-04-24T09:46:38;18.70;99.90
2130;DHT22;1071;52.544;13.374;2023-04-24T09:49:13;18.70;99.90
2130;DHT22;1071;52.544;13.374;2023-04-24T09:51:41;18.70;99.90
2130;DHT22;1071;52.544;13.374;2023-04-24T09:54:20;18.70;99.90
2130;DHT22;1071;52.544;13.374;2023-04-24T09:56:51;18.70;99.90
2130;DHT22;1071;52.544;13.374;2023-04-24T09:59:20;18.60;99.90
2130;DHT22;1071;52.544;13.374;2023-04-24T10:01:47;18.60;99.90
2130;DHT22;1071;52.544;13.374;2023-04-24T10:04:19;18.70;99.90
2130;DHT22;1071;52.544;13.374;2023-04-24T10:06:48;18.70;99.90
2130;DHT22;1071;52.544;13.374;2023-04-24T10:09:15;18.80;99.90
2130;DHT22;1071;52.544;13.374;2023-04-24T10:11:44;18.80;99.90
2130;DHT22;1071;52.544;13.374;2023-04-24T10:14:16;18.90;99.90
2130;DHT22;1071;52.544;13.374;2023-04-24T10:16:45;19.00;99.90
2130;DHT22;1071;52.544;13.374;2023-04-24T10:19:14;19.10;99.90
2130;DHT22;1071;52.544;13.374;2023-04-24T10:21:44;19.10;99.90
2130;DHT22;1071;52.544;13.374;2023-04-24T10:24:13;19.20;99.90
2130;DHT22;1071;52.544;13.374;2023-04-24T10:26:41;19.30;99.90
2130;DHT22;1071;52.544;13.374;2023-04-24T10:29:10;19.30;99.90
2130;DHT22;1071;52.544;13.374;2023-04-24T10:31:38;19.40;99.90
2130;DHT22;1071;52.544;13.374;2023-04-24T10:34:09;19.40;99.90
2130;DHT22;1071;52.544;13.374;2023-04-24T10:36:39;19.30;99.90
2130;DHT22;1071;52.544;13.374;2023-04-24T10:39:11;19.30;99.90
2130;DHT22;1071;52.544;13.374;2023-04-24T10:41:39;19.30;99.90
2130;DHT22;1071;52.544;13.374;2023-04-24T10:44:08;19.30;99.90
2130;DHT22;1071;52.544;13.374;2023-04-24T10:46:37;19.20;99.90
2130;DHT22;1071;52.544;13.374;2023-04-24T10:49:06;19.20;99.90
2130;DHT22;1071;52.544;13.374;2023-04-24T10:51:45;19.10;99.90
2130;DHT22;1071;52.544;13.374;2023-04-24T10:54:23;19.10;99.90
2130;DHT22;1071;52.544;13.374;2023-04-24T10:56:51;19.10;99.90
2130;DHT22;1071;52.544;13.374;2023-04-24T10:59:25;19.00;99.90
2130;DHT22;1071;52.544;13.374;2023-04-24T11:01:53;19.00;99.90
2130;DHT22;1071;52.544;13.374;2023-04-24T11:04:31;19.00;99.90
2130;DHT22;1071;52.544;13.374;2023-04-24T11:06:58;19.00;99.90
2130;DHT22;1071;52.544;13.374;2023-04-24T11:09:27;19.00;99.90
2130;DHT22;1071;52.544;13.374;2023-04-24T11:12:05;19.00;99.90
2130;DHT22;1071;52.544;13.374;2023-04-24T11:15:09;19.00;99.80
2130;DHT22;1071;52.544;13.374;2023-04-24T11:18:02;19.10;99.80
2130;DHT22;1071;52.544;13.374;2023-04-24T11:20:31;19.10;99.80
2130;DHT22;1071;52.544;13.374;2023-04-24T11:23:03;19.20;99.90
2130;DHT22;1071;52.544;13.374;2023-04-24T11:25:32;19.30;99.90
2130;DHT22;1071;52.544;13.374;2023-04-24T11:28:05;19.40;99.90
2130;DHT22;1071;52.544;13.374;2023-04-24T11:30:33;19.50;99.90
2130;DHT22;1071;52.544;13.374;2023-04-24T11:33:04;19.40;99.50
2130;DHT22;1071;52.544;13.374;2023-04-24T11:35:39;19.50;99.50
2130;DHT22;1071;52.544;13.374;2023-04-24T11:38:10;19.40;99.90
2130;DHT22;1071;52.544;13.374;2023-04-24T11:40:37;19.40;99.90
2130;DHT22;1071;52.544;13.374;2023-04-24T11:43:05;19.30;99.90
2130;DHT22;1071;52.544;13.374;2023-04-24T11:45:33;19.20;99.90
2130;DHT22;1071;52.544;13.374;2023-04-24T11:48:00;19.10;99.90
2130;DHT22;1071;52.544;13.374;2023-04-24T11:50:27;19.00;99.90
2130;DHT22;1071;52.544;13.374;2023-04-24T11:52:56;18.80;99.90
2130;DHT22;1071;52.544;13.374;2023-04-24T11:55:25;18.70;99.90
2130;DHT22;1071;52.544;13.374;2023-04-24T11:57:54;18.60;99.90
2130;DHT22;1071;52.544;13.374;2023-04-24T12:00:25;18.40;99.90
2130;DHT22;1071;52.544;13.374;2023-04-24T12:03:06;18.40;99.90
2130;DHT22;1071;52.544;13.374;2023-04-24T12:05:33;18.30;99.90
2130;DHT22;1071;52.544;13.374;2023-04-24T12:08:04;18.30;99.90
2130;DHT22;1071;52.544;13.374;2023-04-24T12:10:35;18.30;99.90
2130;DHT22;1071;52.544;13.374;2023-04-24T12:13:02;18.30;99.90
2130;DHT22;1071;52.544;13.374;2023-04-24T12:15:30;18.30;99.90
2130;DHT22;1071;52.544;13.374;2023-04-24T12:17:57;18.30;99.90
2130;DHT22;1071;52.544;13.374;2023-04-24T12:20:25;18.40;99.90
2130;DHT22;1071;52.544;13.374;2023-04-24T12:22:54;18.50;99.90
2130;DHT22;1071;52.544;13.374;2023-04-24T12:25:24;18.50;99.90
2130;DHT22;1071;52.544;13.374;2023-04-24T12:27:53;18.50;99.90
2130;DHT22;1071;52.544;13.374;2023-04-24T12:30:26;18.60;99.90
2130;DHT22;1071;52.544;13.374;2023-04-24T12:32:54;18.60;99.90
2130;DHT22;1071;52.544;13.374;2023-04-24T12:35:25;18.70;99.90
2130;DHT22;1071;52.544;13.374;2023-04-24T12:37:52;18.70;99.90
2130;DHT22;1071;52.544;13.374;2023-04-24T12:40:21;18.80;99.90
2130;DHT22;1071;52.544;13.374;2023-04-24T12:42:55;18.80;99.90
2130;DHT22;1071;52.544;13.374;2023-04-24T12:45:22;19.00;99.90
2130;DHT22;1071;52.544;13.374;2023-04-24T12:47:50;19.00;99.20
2130;DHT22;1071;52.544;13.374;2023-04-24T12:50:17;19.10;96.70
2130;DHT22;1071;52.544;13.374;2023-04-24T12:52:51;19.10;95.40
2130;DHT22;1071;52.544;13.374;2023-04-24T12:55:32;19.20;94.40
2130;DHT22;1071;52.544;13.374;2023-04-24T12:58:01;19.20;93.60
2130;DHT22;1071;52.544;13.374;2023-04-24T13:00:28;19.20;92.10
2130;DHT22;1071;52.544;13.374;2023-04-24T13:03:02;19.30;93.10
2130;DHT22;1071;52.544;13.374;2023-04-24T13:05:29;19.30;94.70
2130;DHT22;1071;52.544;13.374;2023-04-24T13:07:57;19.40;95.20
2130;DHT22;1071;52.544;13.374;2023-04-24T13:10:31;19.50;95.70
2130;DHT22;1071;52.544;13.374;2023-04-24T13:12:58;19.50;96.00
2130;DHT22;1071;52.544;13.374;2023-04-24T13:15:34;19.50;96.40
2130;DHT22;1071;52.544;13.374;2023-04-24T13:18:01;19.50;96.60
2130;DHT22;1071;52.544;13.374;2023-04-24T13:20:30;19.50;96.30
2130;DHT22;1071;52.544;13.374;2023-04-24T13:23:03;19.50;96.20
2130;DHT22;1071;52.544;13.374;2023-04-24T13:25:35;19.50;96.10
2130;DHT22;1071;52.544;13.374;2023-04-24T13:28:02;19.50;96.00
2130;DHT22;1071;52.544;13.374;2023-04-24T13:30:30;19.50;95.40
2130;DHT22;1071;52.544;13.374;2023-04-24T13:32:59;19.50;94.20
2130;DHT22;1071;52.544;13.374;2023-04-24T13:35:26;19.50;93.70
2130;DHT22;1071;52.544;13.374;2023-04-24T13:37:57;19.50;93.00
2130;DHT22;1071;52.544;13.374;2023-04-24T13:40:25;19.50;93.20
2130;DHT22;1071;52.544;13.374;2023-04-24T13:42:53;19.50;93.40
2130;DHT22;1071;52.544;13.374;2023-04-24T13:45:20;19.50;94.00
2130;DHT22;1071;52.544;13.374;2023-04-24T13:47:47;19.50;94.40
2130;DHT22;1071;52.544;13.374;2023-04-24T13:50:15;19.50;94.20
2130;DHT22;1071;52.544;13.374;2023-04-24T13:52:43;19.50;94.20
2130;DHT22;1071;52.544;13.374;2023-04-24T13:55:10;19.50;94.50
2130;DHT22;1071;52.544;13.374;2023-04-24T13:57:37;19.50;94.60
2130;DHT22;1071;52.544;13.374;2023-04-24T14:00:06;19.50;94.60
2130;DHT22;1071;52.544;13.374;2023-04-24T14:02:41;19.40;93.40
2130;DHT22;1071;52.544;13.374;2023-04-24T14:05:09;19.40;92.40
2130;DHT22;1071;52.544;13.374;2023-04-24T14:07:38;19.30;91.00
2130;DHT22;1071;52.544;13.374;2023-04-24T14:10:09;19.40;91.10
2130;DHT22;1071;52.544;13.374;2023-04-24T14:12:36;19.30;90.80
2130;DHT22;1071;52.544;13.374;2023-04-24T14:15:04;19.30;91.00
2130;DHT22;1071;52.544;13.374;2023-04-24T14:17:31;19.30;91.00
2130;DHT22;1071;52.544;13.374;2023-04-24T14:19:58;19.20;90.20
2130;DHT22;1071;52.544;13.374;2023-04-24T14:22:25;19.20;89.60
2130;DHT22;1071;52.544;13.374;2023-04-24T14:24:54;19.10;85.90
2130;DHT22;1071;52.544;13.374;2023-04-24T14:27:21;19.00;81.00
2130;DHT22;1071;52.544;13.374;2023-04-24T14:29:48;18.90;80.50
2130;DHT22;1071;52.544;13.374;2023-04-24T14:32:18;18.90;81.70
2130;DHT22;1071;52.544;13.374;2023-04-24T14:34:45;18.90;82.60
2130;DHT22;1071;52.544;13.374;2023-04-24T14:37:54;19.00;83.30
2130;DHT22;1071;52.544;13.374;2023-04-24T14:40:36;19.00;83.90
2130;DHT22;1071;52.544;13.374;2023-04-24T14:43:03;19.00;81.50
2130;DHT22;1071;52.544;13.374;2023-04-24T14:45:30;19.00;82.20
2130;DHT22;1071;52.544;13.374;2023-04-24T14:47:58;19.10;81.90
2130;DHT22;1071;52.544;13.374;2023-04-24T14:50:25;19.10;81.90
2130;DHT22;1071;52.544;13.374;2023-04-24T14:52:53;19.10;81.90
2130;DHT22;1071;52.544;13.374;2023-04-24T14:55:24;19.10;81.00
2130;DHT22;1071;52.544;13.374;2023-04-24T14:57:53;19.10;79.90
2130;DHT22;1071;52.544;13.374;2023-04-24T15:00:21;19.10;79.10
2130;DHT22;1071;52.544;13.374;2023-04-24T15:02:49;19.10;78.90
2130;DHT22;1071;52.544;13.374;2023-04-24T15:05:17;19.00;78.70
2130;DHT22;1071;52.544;13.374;2023-04-24T15:07:46;19.10;78.70
2130;DHT22;1071;52.544;13.374;2023-04-24T15:10:13;19.00;78.80
2130;DHT22;1071;52.544;13.374;2023-04-24T15:12:40;19.00;79.70
2130;DHT22;1071;52.544;13.374;2023-04-24T15:15:09;19.00;80.00
2130;DHT22;1071;52.544;13.374;2023-04-24T15:17:37;19.00;80.20
2130;DHT22;1071;52.544;13.374;2023-04-24T15:20:14;18.90;79.30
2130;DHT22;1071;52.544;13.374;2023-04-24T15:22:44;18.80;78.80
2130;DHT22;1071;52.544;13.374;2023-04-24T15:25:11;18.80;79.40
2130;DHT22;1071;52.544;13.374;2023-04-24T15:27:40;18.80;79.60
2130;DHT22;1071;52.544;13.374;2023-04-24T15:30:10;18.70;79.40
2130;DHT22;1071;52.544;13.374;2023-04-24T15:32:37;18.70;79.20
2130;DHT22;1071;52.544;13.374;2023-04-24T15:35:07;18.70;78.90
2130;DHT22;1071;52.544;13.374;2023-04-24T15:37:34;18.60;78.40
2130;DHT22;1071;52.544;13.374;2023-04-24T15:40:02;18.60;78.50
2130;DHT22;1071;52.544;13.374;2023-04-24T15:42:31;18.60;78.80
2130;DHT22;1071;52.544;13.374;2023-04-24T15:44:58;18.50;78.60
2130;DHT22;1071;52.544;13.374;2023-04-24T15:47:28;18.50;79.50
2130;DHT22;1071;52.544;13.374;2023-04-24T15:49:55;18.50;79.50
2130;DHT22;1071;52.544;13.374;2023-04-24T15:52:24;18.40;79.40
2130;DHT22;1071;52.544;13.374;2023-04-24T15:54:51;18.30;78.90